Time;durP1;ratioP1;P1;durP2;ratioP2;P2;SDS_P1;SDS_P2;PMS_P1;PMS_P2;Temp;Humidity;BMP_temperature;BMP_pressure;BME280_temperature;BME280_humidity;BME280_pressure;Samples;Min_cycle;Max_cycle;Signal;HPM_P1;HPM_P2
2022/09/15 00:01:26;;;;;;;9.45;5.25;;;13.60;99.90;;;;;;5043319;28;20040;-66
2022/09/15 00:03:52;;;;;;;7.68;5.28;;;13.60;99.90;;;;;;5043472;28;20039;-67
2022/09/15 00:06:18;;;;;;;8.90;5.40;;;13.50;99.90;;;;;;5050437;28;20041;-66
2022/09/15 00:08:43;;;;;;;7.55;5.28;;;13.50;99.90;;;;;;5046576;28;20117;-66
2022/09/15 00:11:16;;;;;;;8.25;5.63;;;13.50;99.90;;;;;;5049139;28;20197;-66
2022/09/15 00:13:41;;;;;;;9.60;5.95;;;13.50;99.90;;;;;;5043424;28;20047;-67
2022/09/15 00:16:08;;;;;;;7.72;5.15;;;13.50;99.90;;;;;;5067357;28;20415;-66
2022/09/15 00:18:35;;;;;;;8.32;5.25;;;13.50;99.90;;;;;;5044373;28;20093;-67
2022/09/15 00:21:10;;;;;;;11.05;5.70;;;13.40;99.90;;;;;;5051689;28;20056;-66
2022/09/15 00:23:37;;;;;;;8.45;6.05;;;13.40;99.90;;;;;;5043644;28;20033;-67
2022/09/15 00:26:06;;;;;;;13.43;6.40;;;13.50;99.90;;;;;;5045545;28;20037;-67
2022/09/15 00:28:32;;;;;;;10.50;6.53;;;13.50;99.90;;;;;;5048520;28;20044;-67
2022/09/15 00:30:58;;;;;;;12.55;7.32;;;13.40;99.90;;;;;;5053880;28;20036;-67
2022/09/15 00:33:23;;;;;;;14.00;7.43;;;13.40;99.90;;;;;;5049977;28;20397;-68
2022/09/15 00:35:51;;;;;;;11.32;7.80;;;13.50;99.90;;;;;;5069666;28;20067;-67
2022/09/15 00:38:18;;;;;;;10.65;8.05;;;13.40;99.90;;;;;;5049470;28;20040;-68
2022/09/15 00:40:51;;;;;;;14.05;8.43;;;13.40;99.90;;;;;;5050748;28;20040;-67
2022/09/15 00:43:19;;;;;;;13.18;7.60;;;13.40;99.90;;;;;;5045349;28;20033;-67
2022/09/15 00:45:44;;;;;;;13.40;7.75;;;13.30;99.90;;;;;;5045594;28;20076;-68
2022/09/15 00:48:16;;;;;;;16.27;7.95;;;13.30;99.90;;;;;;5048615;28;20064;-68
2022/09/15 00:50:48;;;;;;;16.42;7.88;;;13.20;99.90;;;;;;5053099;28;20025;-66
2022/09/15 00:53:14;;;;;;;12.40;7.90;;;13.20;99.90;;;;;;5049716;28;20057;-67
2022/09/15 00:55:47;;;;;;;19.02;7.20;;;13.30;99.90;;;;;;5066533;28;20037;-69
2022/09/15 00:58:33;;;;;;;13.27;6.82;;;13.30;99.90;;;;;;5050377;28;20502;-68
2022/09/15 01:01:00;;;;;;;15.27;6.57;;;13.30;99.90;;;;;;5046086;28;20041;-69
2022/09/15 01:03:29;;;;;;;12.85;6.20;;;13.20;99.90;;;;;;5058930;28;20045;-68
2022/09/15 01:05:59;;;;;;;10.43;6.22;;;13.30;99.90;;;;;;5048626;28;20040;-68
2022/09/15 01:08:32;;;;;;;10.40;5.47;;;13.30;99.90;;;;;;5068295;28;20037;-68
2022/09/15 01:10:58;;;;;;;11.77;5.65;;;13.40;99.90;;;;;;5050482;28;20106;-66
2022/09/15 01:13:24;;;;;;;12.45;5.38;;;13.40;99.90;;;;;;5046794;28;20071;-67
2022/09/15 01:16:37;;;;;;;10.75;5.15;;;13.40;99.90;;;;;;5050650;28;20787;-67
2022/09/15 01:19:03;;;;;;;;;;;13.30;99.90;;;;;;5017256;28;20048;-67
2022/09/15 01:21:50;;;;;;;10.43;4.88;;;13.40;99.90;;;;;;5050436;28;19924;-67
2022/09/15 01:24:42;;;;;;;13.07;4.93;;;13.30;99.90;;;;;;5049246;28;20115;-67
2022/09/15 01:27:45;;;;;;;11.32;5.88;;;13.30;99.90;;;;;;5046959;28;20078;-66
2022/09/15 01:30:20;;;;;;;12.77;5.32;;;13.30;99.90;;;;;;5044775;28;20037;-65
2022/09/15 01:33:03;;;;;;;12.43;5.47;;;13.20;99.90;;;;;;5047235;28;20042;-66
2022/09/15 01:35:30;;;;;;;10.40;5.38;;;13.10;99.90;;;;;;5051312;28;20048;-65
2022/09/15 01:38:02;;;;;;;9.75;5.25;;;13.10;99.90;;;;;;5051066;28;20386;-66
2022/09/15 01:40:49;;;;;;;14.30;5.93;;;13.00;99.90;;;;;;5038232;28;20049;-66
2022/09/15 01:43:17;;;;;;;14.30;5.75;;;13.00;99.90;;;;;;5058465;28;20079;-66
2022/09/15 01:45:45;;;;;;;16.55;6.07;;;12.90;99.90;;;;;;5057993;28;20530;-66
2022/09/15 01:48:11;;;;;;;18.65;6.38;;;13.00;99.90;;;;;;5052919;28;20115;-65
2022/09/15 01:50:43;;;;;;;10.88;5.93;;;13.00;99.90;;;;;;5050380;28;20155;-65
2022/09/15 01:53:14;;;;;;;15.27;5.75;;;12.90;99.90;;;;;;5060539;28;20032;-66
2022/09/15 01:55:43;;;;;;;11.57;6.07;;;13.00;99.90;;;;;;5061788;28;20136;-65
2022/09/15 01:58:09;;;;;;;12.70;5.88;;;12.90;99.90;;;;;;5056882;28;20051;-66
2022/09/15 02:00:40;;;;;;;15.20;6.53;;;13.10;99.90;;;;;;5052117;28;20049;-66
2022/09/15 02:03:32;;;;;;;14.00;6.05;;;13.10;99.90;;;;;;5049699;28;20120;-66
2022/09/15 02:06:06;;;;;;;9.15;5.82;;;13.10;99.90;;;;;;5057774;28;20033;-66
2022/09/15 02:08:46;;;;;;;12.40;5.50;;;13.10;99.90;;;;;;5056934;28;20032;-65
2022/09/15 02:11:21;;;;;;;13.00;5.57;;;13.20;99.90;;;;;;5057132;28;20040;-65
2022/09/15 02:14:10;;;;;;;10.23;5.28;;;13.00;99.90;;;;;;5044970;28;20039;-65
2022/09/15 02:16:37;;;;;;;14.02;5.00;;;13.10;99.90;;;;;;5059882;28;20032;-66
2022/09/15 02:19:20;;;;;;;12.65;5.07;;;13.10;99.90;;;;;;5058403;28;20052;-66
2022/09/15 02:21:53;;;;;;;13.00;5.45;;;13.10;99.90;;;;;;5042817;28;20706;-66
2022/09/15 02:24:31;;;;;;;13.57;5.63;;;13.20;99.90;;;;;;5063284;28;20666;-66
2022/09/15 02:26:57;;;;;;;14.45;5.82;;;13.10;99.90;;;;;;5055428;28;20041;-66
2022/09/15 02:29:26;;;;;;;9.98;5.38;;;13.10;99.90;;;;;;5058021;28;20037;-66
2022/09/15 02:31:56;;;;;;;11.82;5.50;;;13.20;99.90;;;;;;5056127;28;20585;-67
2022/09/15 02:34:26;;;;;;;11.60;5.20;;;13.20;99.90;;;;;;5054272;28;20048;-66
2022/09/15 02:36:53;;;;;;;12.23;6.07;;;13.20;99.90;;;;;;5054270;28;20051;-67
2022/09/15 02:39:23;;;;;;;17.83;6.72;;;13.10;99.90;;;;;;5043014;28;20136;-66
2022/09/15 02:41:48;;;;;;;15.55;6.25;;;13.20;99.90;;;;;;5063234;28;20526;-66
2022/09/15 02:44:14;;;;;;;9.05;3.88;;;13.30;99.90;;;;;;5048625;28;20358;-71
2022/09/15 02:46:40;;;;;;;10.27;3.47;;;13.30;99.90;;;;;;5055127;28;20135;-68
2022/09/15 02:49:06;;;;;;;10.77;3.10;;;13.40;99.90;;;;;;5062952;28;20376;-67
2022/09/15 02:51:32;;;;;;;7.53;2.20;;;13.50;99.90;;;;;;5040655;28;20040;-65
2022/09/15 02:53:58;;;;;;;10.98;2.63;;;13.60;99.90;;;;;;5045313;28;20033;-66
2022/09/15 02:56:24;;;;;;;7.95;2.33;;;13.60;99.90;;;;;;5046703;28;20056;-67
2022/09/15 02:58:49;;;;;;;12.60;2.80;;;13.70;99.90;;;;;;5050843;28;20064;-67
2022/09/15 03:01:15;;;;;;;5.85;2.10;;;13.70;99.90;;;;;;5055014;28;20495;-67
2022/09/15 03:03:42;;;;;;;8.38;2.10;;;13.60;99.90;;;;;;5050414;28;20061;-66
2022/09/15 03:06:19;;;;;;;11.85;2.35;;;13.60;99.90;;;;;;5052065;28;20072;-67
2022/09/15 03:08:51;;;;;;;6.93;2.33;;;13.60;99.90;;;;;;5044980;28;20049;-67
2022/09/15 03:11:19;;;;;;;12.43;2.22;;;13.60;99.90;;;;;;5060728;28;20103;-67
2022/09/15 03:13:45;;;;;;;8.15;1.92;;;13.70;99.90;;;;;;5048432;28;20487;-68
2022/09/15 03:16:12;;;;;;;8.75;1.73;;;13.70;99.90;;;;;;5068476;28;20115;-67
2022/09/15 03:18:39;;;;;;;7.82;1.70;;;13.70;99.90;;;;;;5050051;28;20047;-68
2022/09/15 03:21:07;;;;;;;13.40;1.85;;;13.70;99.90;;;;;;5052616;28;20080;-67
2022/09/15 03:23:33;;;;;;;7.35;1.73;;;13.70;99.90;;;;;;5052283;28;20044;-67
2022/09/15 03:25:59;;;;;;;8.02;1.73;;;13.80;99.90;;;;;;5048040;28;20119;-68
2022/09/15 03:28:26;;;;;;;8.23;1.73;;;13.70;99.90;;;;;;5041985;28;20037;-68
2022/09/15 03:30:52;;;;;;;7.03;1.40;;;13.80;99.90;;;;;;5049768;28;20465;-68
2022/09/15 03:33:18;;;;;;;4.90;1.48;;;13.70;99.90;;;;;;5029691;28;20520;-66
2022/09/15 03:35:48;;;;;;;8.65;1.70;;;13.70;99.90;;;;;;5043741;28;20036;-66
2022/09/15 03:38:15;;;;;;;10.45;1.60;;;13.70;99.90;;;;;;5070596;28;20398;-66
2022/09/15 03:40:42;;;;;;;7.78;1.27;;;13.70;99.90;;;;;;5067089;28;20243;-66
2022/09/15 03:43:11;;;;;;;8.00;1.55;;;13.70;99.90;;;;;;5069686;28;20046;-67
2022/09/15 03:45:37;;;;;;;4.38;1.10;;;13.70;99.90;;;;;;5047322;28;20079;-66
2022/09/15 03:48:07;;;;;;;6.32;1.23;;;13.70;99.90;;;;;;5044240;28;20041;-67
2022/09/15 03:50:33;;;;;;;9.68;1.70;;;13.70;99.90;;;;;;5044771;28;20040;-66
2022/09/15 03:52:59;;;;;;;8.60;1.50;;;13.70;99.90;;;;;;5048360;28;20119;-66
2022/09/15 03:55:26;;;;;;;11.80;1.50;;;13.60;99.90;;;;;;5048808;28;20037;-66
2022/09/15 03:57:52;;;;;;;8.30;1.48;;;13.60;99.90;;;;;;5046030;28;20037;-66
2022/09/15 04:00:17;;;;;;;5.13;1.30;;;13.60;99.90;;;;;;5053885;28;20038;-66
2022/09/15 04:02:43;;;;;;;5.53;1.23;;;13.60;99.90;;;;;;5045829;28;20045;-66
2022/09/15 04:05:09;;;;;;;6.05;1.30;;;13.60;99.90;;;;;;5049956;28;20037;-66
2022/09/15 04:07:35;;;;;;;4.82;1.10;;;13.60;99.90;;;;;;5048268;28;20537;-66
2022/09/15 04:10:01;;;;;;;6.75;1.23;;;13.50;99.90;;;;;;5049338;28;20606;-66
2022/09/15 04:12:28;;;;;;;8.60;1.33;;;13.50;99.90;;;;;;5057462;28;20525;-66
2022/09/15 04:14:54;;;;;;;11.45;1.55;;;13.50;99.90;;;;;;5028460;28;20459;-67
2022/09/15 04:17:20;;;;;;;8.70;1.40;;;13.50;99.90;;;;;;5051184;28;20060;-67
2022/09/15 04:19:46;;;;;;;7.50;1.10;;;13.50;99.90;;;;;;5045200;28;20068;-67
2022/09/15 04:22:11;;;;;;;6.55;1.45;;;13.40;99.90;;;;;;5046079;28;20076;-66
2022/09/15 04:24:37;;;;;;;12.07;1.63;;;13.40;99.90;;;;;;5062652;28;20218;-67
2022/09/15 04:27:03;;;;;;;7.50;1.42;;;13.40;99.90;;;;;;5049875;28;20049;-66
2022/09/15 04:29:28;;;;;;;6.93;1.40;;;13.40;99.90;;;;;;5045408;28;20668;-67
2022/09/15 04:31:54;;;;;;;5.72;1.20;;;13.40;99.90;;;;;;5054614;28;20037;-67
2022/09/15 04:34:19;;;;;;;7.40;1.20;;;13.40;99.90;;;;;;5050047;28;20060;-67
2022/09/15 04:36:45;;;;;;;6.72;1.17;;;13.40;99.90;;;;;;5050005;28;20040;-66
2022/09/15 04:39:11;;;;;;;5.80;1.42;;;13.40;99.90;;;;;;5053114;28;20098;-66
2022/09/15 04:41:37;;;;;;;9.77;1.50;;;13.40;99.90;;;;;;5045180;28;20349;-66
2022/09/15 04:44:03;;;;;;;10.93;1.60;;;13.30;99.90;;;;;;5040523;28;20052;-66
2022/09/15 04:46:29;;;;;;;7.35;1.20;;;13.40;99.90;;;;;;5043159;28;20963;-65
2022/09/15 04:48:55;;;;;;;9.90;1.30;;;13.30;99.90;;;;;;5044321;28;20044;-67
2022/09/15 04:51:21;;;;;;;9.32;1.58;;;13.30;99.90;;;;;;5045312;28;20443;-66
2022/09/15 04:53:48;;;;;;;7.45;1.40;;;13.40;99.90;;;;;;5043625;28;20040;-67
2022/09/15 04:56:17;;;;;;;8.23;1.50;;;13.40;99.90;;;;;;5046221;28;20080;-67
2022/09/15 04:58:45;;;;;;;8.02;1.50;;;13.50;99.90;;;;;;5058155;28;20037;-67
2022/09/15 05:01:20;;;;;;;9.75;1.75;;;13.50;99.90;;;;;;5046599;28;20094;-67
2022/09/15 05:03:46;;;;;;;7.20;1.98;;;13.50;99.90;;;;;;5059278;28;20036;-67
2022/09/15 05:06:17;;;;;;;11.15;1.70;;;13.60;99.90;;;;;;5058413;28;20127;-66
2022/09/15 05:08:46;;;;;;;8.68;1.42;;;13.60;99.90;;;;;;5050673;28;20041;-68
2022/09/15 05:11:12;;;;;;;8.27;1.70;;;13.60;99.90;;;;;;5071786;28;20402;-66
2022/09/15 05:13:38;;;;;;;6.97;1.25;;;13.60;99.90;;;;;;5052694;28;20044;-67
2022/09/15 05:16:13;;;;;;;7.28;1.42;;;13.50;99.90;;;;;;5051743;28;20040;-66
2022/09/15 05:18:39;;;;;;;11.63;1.65;;;13.50;99.90;;;;;;5037897;28;20434;-66
2022/09/15 05:21:07;;;;;;;8.45;1.40;;;13.50;99.90;;;;;;5045016;28;20040;-66
2022/09/15 05:23:34;;;;;;;5.35;1.80;;;13.50;99.90;;;;;;5051332;28;20490;-66
2022/09/15 05:26:02;;;;;;;10.40;1.40;;;13.50;99.90;;;;;;5042418;28;20419;-66
2022/09/15 05:28:28;;;;;;;6.65;1.42;;;13.50;99.90;;;;;;5050413;28;20028;-66
2022/09/15 05:30:54;;;;;;;11.48;2.10;;;13.50;99.90;;;;;;5048368;28;20037;-65
2022/09/15 05:33:22;;;;;;;8.15;1.73;;;13.50;99.90;;;;;;5048261;28;20068;-66
2022/09/15 05:35:55;;;;;;;9.80;1.80;;;13.50;99.90;;;;;;5038593;28;20441;-66
2022/09/15 05:38:21;;;;;;;6.60;1.60;;;13.60;99.90;;;;;;5048114;28;20214;-66
2022/09/15 05:40:49;;;;;;;9.82;1.60;;;13.60;99.90;;;;;;5049806;28;20041;-66
2022/09/15 05:43:15;;;;;;;9.80;1.65;;;13.50;99.90;;;;;;5056902;28;20055;-66
2022/09/15 05:45:41;;;;;;;6.40;1.52;;;13.50;99.90;;;;;;5039898;28;20120;-67
2022/09/15 05:48:08;;;;;;;6.80;1.98;;;13.60;99.90;;;;;;5039277;28;20124;-66
2022/09/15 05:50:34;;;;;;;9.00;1.20;;;13.60;99.90;;;;;;5041383;28;20224;-67
2022/09/15 05:53:00;;;;;;;7.88;1.60;;;13.60;99.90;;;;;;5044884;28;20375;-66
2022/09/15 05:55:25;;;;;;;6.72;1.50;;;13.60;99.90;;;;;;5042919;28;20049;-66
2022/09/15 05:57:52;;;;;;;9.52;1.67;;;13.60;99.90;;;;;;5041209;28;20043;-66
2022/09/15 06:00:18;;;;;;;14.77;1.52;;;13.70;99.90;;;;;;5064968;28;20057;-66
2022/09/15 06:02:43;;;;;;;9.77;1.55;;;13.70;99.90;;;;;;5056666;28;20613;-65
2022/09/15 06:05:09;;;;;;;12.90;1.70;;;13.70;99.90;;;;;;5039376;28;20041;-66
2022/09/15 06:07:35;;;;;;;9.50;1.50;;;13.70;99.90;;;;;;5045292;28;20077;-66
2022/09/15 06:10:01;;;;;;;5.25;1.33;;;13.80;99.90;;;;;;5051599;28;20118;-66
2022/09/15 06:12:26;;;;;;;7.70;1.70;;;13.80;99.90;;;;;;5053266;28;20044;-67
2022/09/15 06:14:52;;;;;;;8.02;1.58;;;13.80;99.90;;;;;;5047071;28;20048;-67
2022/09/15 06:17:19;;;;;;;8.30;1.52;;;13.90;99.90;;;;;;5062443;28;20041;-66
2022/09/15 06:19:44;;;;;;;7.38;1.40;;;13.90;99.90;;;;;;5055500;28;20509;-66
2022/09/15 06:22:10;;;;;;;6.80;1.52;;;13.90;99.90;;;;;;5047906;28;20323;-66
2022/09/15 06:24:36;;;;;;;6.32;1.60;;;14.00;99.90;;;;;;5057809;28;20040;-66
2022/09/15 06:27:02;;;;;;;11.10;1.40;;;14.00;99.90;;;;;;5071684;28;20103;-66
2022/09/15 06:29:28;;;;;;;5.75;1.35;;;14.00;99.90;;;;;;5052548;28;20038;-66
2022/09/15 06:31:55;;;;;;;8.07;1.50;;;14.10;99.90;;;;;;5064821;28;20044;-66
2022/09/15 06:34:21;;;;;;;9.15;1.88;;;14.10;99.90;;;;;;5045460;28;20032;-66
2022/09/15 06:36:46;;;;;;;15.10;1.65;;;14.10;99.90;;;;;;5059676;28;20032;-65
2022/09/15 06:39:12;;;;;;;9.82;1.58;;;14.10;99.90;;;;;;5057399;28;20048;-66
2022/09/15 06:41:38;;;;;;;9.05;1.55;;;14.20;99.90;;;;;;5063195;28;20123;-67
2022/09/15 06:44:03;;;;;;;9.07;1.58;;;14.20;99.90;;;;;;5057896;28;20079;-67
2022/09/15 06:46:29;;;;;;;10.52;1.50;;;14.30;99.90;;;;;;5053022;28;20044;-68
2022/09/15 06:48:55;;;;;;;10.70;1.70;;;14.30;99.90;;;;;;5057362;28;20085;-66
2022/09/15 06:51:24;;;;;;;6.90;1.95;;;14.40;99.90;;;;;;5063398;28;20036;-68
2022/09/15 06:53:51;;;;;;;7.25;1.45;;;14.50;99.90;;;;;;5052842;28;20025;-68
2022/09/15 06:56:20;;;;;;;7.00;1.30;;;14.60;99.90;;;;;;5058319;28;20041;-68
2022/09/15 06:58:49;;;;;;;7.93;1.27;;;14.60;99.90;;;;;;5055869;28;20053;-69
2022/09/15 07:01:25;;;;;;;6.85;1.60;;;14.70;99.90;;;;;;5053091;28;20472;-66
2022/09/15 07:03:51;;;;;;;8.60;1.35;;;14.80;99.90;;;;;;5043557;28;20052;-67
2022/09/15 07:06:17;;;;;;;9.93;1.50;;;14.80;99.90;;;;;;5043895;28;20044;-67
2022/09/15 07:08:44;;;;;;;6.35;1.63;;;14.90;99.90;;;;;;5058359;28;20041;-70
2022/09/15 07:11:09;;;;;;;9.55;1.30;;;14.90;99.90;;;;;;5050554;28;20141;-68
2022/09/15 07:13:35;;;;;;;5.68;1.33;;;15.00;99.90;;;;;;5074964;28;20123;-70
2022/09/15 07:16:03;;;;;;;7.53;1.70;;;15.00;99.90;;;;;;5056496;28;20037;-71
2022/09/15 07:18:29;;;;;;;11.20;1.50;;;15.00;99.90;;;;;;5054795;28;20418;-69
2022/09/15 07:21:04;;;;;;;10.32;1.85;;;15.10;99.90;;;;;;5049860;28;20041;-67
2022/09/15 07:23:31;;;;;;;8.50;1.73;;;15.20;99.90;;;;;;5043825;28;20057;-69
2022/09/15 07:26:14;;;;;;;7.45;2.10;;;15.20;99.90;;;;;;5047347;28;20081;-69
2022/09/15 07:28:42;;;;;;;11.13;2.88;;;15.30;99.90;;;;;;5047352;28;20044;-69
2022/09/15 07:31:10;;;;;;;15.70;3.78;;;15.30;99.90;;;;;;5050680;28;20041;-70
2022/09/15 07:33:35;;;;;;;19.00;5.13;;;15.30;99.90;;;;;;5050213;28;20130;-69
2022/09/15 07:36:03;;;;;;;18.67;5.53;;;15.40;99.90;;;;;;5051287;28;20076;-67
2022/09/15 07:38:29;;;;;;;23.77;6.05;;;15.40;99.90;;;;;;5050604;28;20537;-67
2022/09/15 07:41:02;;;;;;;24.00;7.25;;;15.50;99.90;;;;;;5039718;28;20037;-68
2022/09/15 07:43:27;;;;;;;23.13;7.45;;;15.60;99.90;;;;;;5044531;28;20595;-69
2022/09/15 07:45:56;;;;;;;27.65;7.95;;;15.60;99.90;;;;;;5052132;28;20316;-68
2022/09/15 07:48:22;;;;;;;22.70;5.40;;;15.60;99.90;;;;;;5036525;28;20048;-70
2022/09/15 07:50:48;;;;;;;14.63;3.78;;;15.60;99.90;;;;;;5054932;28;20037;-70
2022/09/15 07:53:13;;;;;;;11.02;3.58;;;15.60;99.90;;;;;;5047202;28;20029;-68
2022/09/15 07:55:39;;;;;;;18.48;4.97;;;15.60;99.90;;;;;;5048779;28;20560;-66
2022/09/15 07:58:04;;;;;;;19.05;5.60;;;15.60;99.90;;;;;;5044714;28;20476;-70
2022/09/15 08:00:30;;;;;;;16.45;5.00;;;15.60;99.90;;;;;;5052383;28;20045;-71
2022/09/15 08:02:56;;;;;;;14.02;4.22;;;15.70;99.90;;;;;;5064160;28;20175;-70
2022/09/15 08:05:27;;;;;;;13.10;3.40;;;15.80;99.90;;;;;;5053526;28;20037;-71
2022/09/15 08:07:54;;;;;;;11.13;2.85;;;15.80;99.90;;;;;;5071864;28;20036;-67
2022/09/15 08:10:21;;;;;;;16.65;4.65;;;15.80;99.90;;;;;;5048987;28;20075;-69
2022/09/15 08:12:46;;;;;;;17.42;4.72;;;15.80;99.90;;;;;;5036075;28;20426;-67
2022/09/15 08:15:12;;;;;;;17.08;4.43;;;15.90;99.90;;;;;;5045745;28;20041;-72
2022/09/15 08:17:37;;;;;;;15.18;4.50;;;15.80;99.90;;;;;;5052227;28;20488;-66
2022/09/15 08:20:04;;;;;;;16.80;4.43;;;15.90;99.90;;;;;;5048629;28;20037;-67
2022/09/15 08:22:29;;;;;;;17.42;5.13;;;15.90;99.90;;;;;;5049613;28;20045;-67
2022/09/15 08:24:55;;;;;;;24.85;7.60;;;15.90;99.90;;;;;;5048410;28;20064;-67
2022/09/15 08:27:20;;;;;;;14.48;4.40;;;16.00;99.90;;;;;;5047327;28;20480;-70
2022/09/15 08:29:46;;;;;;;22.92;6.20;;;16.10;99.90;;;;;;5044735;28;20155;-67
2022/09/15 08:32:11;;;;;;;18.63;7.55;;;16.20;99.90;;;;;;5056097;28;20029;-69
2022/09/15 08:34:37;;;;;;;20.83;7.25;;;16.50;99.90;;;;;;5041613;28;20082;-66
2022/09/15 08:37:03;;;;;;;19.15;5.80;;;16.60;99.90;;;;;;5050041;28;20379;-69
2022/09/15 08:39:28;;;;;;;22.55;7.07;;;16.70;99.90;;;;;;5051293;28;20090;-66
2022/09/15 08:41:54;;;;;;;20.52;6.85;;;16.80;99.90;;;;;;5050584;28;20528;-66
2022/09/15 08:44:36;;;;;;;24.55;7.97;;;16.90;99.90;;;;;;5047851;28;20068;-70
2022/09/15 08:47:11;;;;;;;23.30;7.72;;;17.00;99.90;;;;;;5057333;28;20504;-69
2022/09/15 08:50:09;;;;;;;15.15;4.95;;;17.10;99.90;;;;;;5048262;28;20044;-71
2022/09/15 08:52:39;;;;;;;10.60;3.30;;;17.00;99.90;;;;;;5046267;28;20052;-68
2022/09/15 08:55:13;;;;;;;7.07;1.60;;;16.90;99.90;;;;;;5040311;28;20083;-70
2022/09/15 08:57:39;;;;;;;8.80;1.48;;;16.90;99.90;;;;;;5047841;28;20045;-66
2022/09/15 09:00:12;;;;;;;7.35;0.90;;;16.80;99.90;;;;;;5047004;28;20102;-69
2022/09/15 09:03:08;;;;;;;5.88;1.40;;;16.90;99.90;;;;;;5047825;28;20051;-73
2022/09/15 09:05:46;;;;;;;8.65;2.38;;;17.10;99.90;;;;;;5062474;28;20037;-69
2022/09/15 09:08:22;;;;;;;7.72;1.45;;;17.30;99.90;;;;;;5062765;28;20033;-70
2022/09/15 09:11:05;;;;;;;4.38;1.00;;;17.30;99.90;;;;;;5049528;28;20037;-73
2022/09/15 09:13:42;;;;;;;5.22;1.23;;;17.20;99.90;;;;;;5062093;28;20036;-73
2022/09/15 09:16:25;;;;;;;6.15;1.10;;;17.20;99.90;;;;;;5047691;28;20053;-68
2022/09/15 09:19:15;;;;;;;4.47;0.95;;;17.30;99.90;;;;;;5045516;28;20548;-72
2022/09/15 09:21:46;;;;;;;3.78;0.88;;;17.50;99.90;;;;;;5045923;28;20048;-70
2022/09/15 09:24:16;;;;;;;2.85;0.85;;;17.60;99.90;;;;;;5049156;28;20044;-72
2022/09/15 09:26:47;;;;;;;3.92;1.05;;;17.60;99.90;;;;;;5062760;28;20051;-68
2022/09/15 09:29:17;;;;;;;6.95;1.30;;;17.60;99.90;;;;;;5063599;28;20528;-75
2022/09/15 09:31:46;;;;;;;6.30;1.42;;;17.40;99.90;;;;;;5032708;28;20048;-73
2022/09/15 09:34:30;;;;;;;6.75;1.33;;;17.40;99.90;;;;;;5045924;28;20028;-73
2022/09/15 09:36:57;;;;;;;8.48;1.55;;;17.30;99.90;;;;;;5039632;28;20166;-71
2022/09/15 09:39:25;;;;;;;16.17;1.83;;;17.20;99.90;;;;;;5047921;28;20036;-69
2022/09/15 09:41:51;;;;;;;9.55;1.40;;;17.10;99.90;;;;;;5047729;28;20052;-70
2022/09/15 09:44:18;;;;;;;8.63;1.50;;;17.20;99.90;;;;;;5045620;28;20044;-74
2022/09/15 09:46:45;;;;;;;6.75;1.40;;;17.30;99.90;;;;;;5047636;28;20494;-69
2022/09/15 09:49:22;;;;;;;7.97;2.00;;;17.20;99.90;;;;;;5047477;28;20487;-70
2022/09/15 09:51:58;;;;;;;6.80;1.35;;;17.30;99.90;;;;;;5037952;28;20032;-73
2022/09/15 09:54:27;;;;;;;8.45;1.27;;;17.30;99.90;;;;;;5045666;28;20052;-69
2022/09/15 09:56:55;;;;;;;5.05;1.35;;;17.30;99.90;;;;;;5049542;28;20037;-70
2022/09/15 09:59:38;;;;;;;8.93;1.38;;;17.30;99.90;;;;;;5053658;28;20041;-69
2022/09/15 10:02:09;;;;;;;6.32;1.10;;;17.30;99.90;;;;;;5046229;28;20452;-72
2022/09/15 10:04:39;;;;;;;3.50;0.68;;;17.40;99.90;;;;;;5042011;28;20110;-69
2022/09/15 10:07:06;;;;;;;4.45;0.70;;;17.50;99.90;;;;;;5052606;28;20083;-72
2022/09/15 10:09:32;;;;;;;5.93;1.23;;;17.50;99.90;;;;;;5048285;28;20048;-71
2022/09/15 10:12:00;;;;;;;4.95;0.63;;;17.50;99.90;;;;;;5048231;28;20403;-70
2022/09/15 10:14:32;;;;;;;4.40;1.00;;;17.50;99.90;;;;;;5050217;28;20507;-72
2022/09/15 10:17:07;;;;;;;5.38;0.90;;;17.40;99.90;;;;;;5045509;28;20075;-71
2022/09/15 10:19:46;;;;;;;3.88;0.73;;;17.40;99.90;;;;;;5047974;28;20075;-73
2022/09/15 10:22:23;;;;;;;3.97;0.75;;;17.40;99.90;;;;;;5060879;28;20564;-73
2022/09/15 10:24:49;;;;;;;4.82;0.90;;;17.40;99.90;;;;;;5060952;28;20434;-71
2022/09/15 10:27:29;;;;;;;6.03;1.02;;;17.30;99.90;;;;;;5040316;28;20052;-72
2022/09/15 10:29:57;;;;;;;6.22;0.70;;;17.20;99.90;;;;;;5050839;28;20036;-71
2022/09/15 10:32:28;;;;;;;9.52;1.00;;;17.20;99.90;;;;;;5048845;28;20040;-69
2022/09/15 10:35:03;;;;;;;6.80;1.20;;;17.20;99.90;;;;;;5048577;28;20107;-70
2022/09/15 10:37:44;;;;;;;4.70;0.82;;;17.10;99.90;;;;;;5035177;28;20434;-73
2022/09/15 10:40:44;;;;;;;2.78;0.80;;;17.20;99.90;;;;;;5059853;28;20137;-68
2022/09/15 10:43:48;;;;;;;4.55;0.98;;;17.20;99.90;;;;;;5044947;28;20492;-68
2022/09/15 10:46:36;;;;;;;4.55;0.95;;;17.10;99.90;;;;;;5044049;28;20099;-70
2022/09/15 10:49:18;;;;;;;5.65;0.90;;;17.30;99.90;;;;;;5042973;28;20079;-70
2022/09/15 10:52:05;;;;;;;10.23;0.90;;;17.30;99.90;;;;;;5055953;28;20486;-70
2022/09/15 10:54:46;;;;;;;3.95;0.82;;;17.40;99.90;;;;;;5044410;28;20044;-73
2022/09/15 10:57:18;;;;;;;4.55;0.90;;;17.60;99.90;;;;;;5063650;28;20101;-71
2022/09/15 11:00:22;;;;;;;4.30;1.10;;;17.60;99.90;;;;;;5031639;28;20052;-69
2022/09/15 11:03:05;;;;;;;3.58;0.95;;;17.50;99.90;;;;;;5056846;28;20490;-69
2022/09/15 11:05:52;;;;;;;4.43;0.80;;;17.50;99.90;;;;;;5045780;28;20461;-67
2022/09/15 11:09:05;;;;;;;5.43;1.00;;;17.60;99.90;;;;;;5049682;28;20474;-71
2022/09/15 11:11:49;;;;;;;6.30;1.20;;;17.80;99.90;;;;;;5025450;28;20041;-71
2022/09/15 11:14:29;;;;;;;8.45;1.35;;;17.90;99.90;;;;;;5049673;28;20362;-70
2022/09/15 11:17:09;;;;;;;5.78;0.80;;;18.00;99.90;;;;;;5066567;28;20503;-70
2022/09/15 11:20:11;;;;;;;8.60;1.25;;;18.00;99.90;;;;;;5046781;28;20072;-75
2022/09/15 11:22:51;;;;;;;10.40;1.67;;;18.00;99.90;;;;;;5069287;28;20048;-67
2022/09/15 11:25:21;;;;;;;5.30;1.42;;;17.90;99.90;;;;;;5047942;28;20033;-69
2022/09/15 11:28:02;;;;;;;5.10;1.13;;;17.70;99.90;;;;;;5051569;28;20486;-71
2022/09/15 11:30:34;;;;;;;3.72;0.73;;;17.50;99.90;;;;;;5049649;28;20294;-71
2022/09/15 11:33:05;;;;;;;;;;;17.40;99.90;;;;;;5051303;28;20045;-72
2022/09/15 11:35:58;;;;;;;5.82;1.15;;;17.30;99.90;;;;;;5052348;28;20411;-69
2022/09/15 11:38:33;;;;;;;6.45;1.80;;;17.40;99.90;;;;;;5049300;28;20183;-70
2022/09/15 11:41:13;;;;;;;10.57;1.42;;;17.50;99.90;;;;;;5046290;28;20057;-69
2022/09/15 11:43:49;;;;;;;6.93;1.10;;;17.60;99.90;;;;;;5053212;28;20049;-73
2022/09/15 11:46:24;;;;;;;2.95;1.25;;;17.70;99.90;;;;;;5053791;28;20047;-72
2022/09/15 11:49:11;;;;;;;3.72;1.13;;;17.80;99.90;;;;;;5048081;28;20187;-71
2022/09/15 11:51:46;;;;;;;4.70;0.82;;;18.10;99.90;;;;;;5051803;28;20040;-70
2022/09/15 11:54:20;;;;;;;2.05;0.70;;;18.20;99.90;;;;;;5054966;28;20033;-71
2022/09/15 11:56:46;;;;;;;6.47;1.02;;;18.30;99.90;;;;;;5032056;28;20505;-72
2022/09/15 11:59:31;;;;;;;7.03;1.10;;;18.20;99.90;;;;;;5050934;28;20584;-73
2022/09/15 12:02:25;;;;;;;10.88;1.27;;;18.00;99.90;;;;;;5057113;28;20063;-72
2022/09/15 12:05:13;;;;;;;8.45;1.50;;;17.80;99.90;;;;;;5049372;28;20045;-71
2022/09/15 12:07:56;;;;;;;9.40;1.83;;;17.80;99.90;;;;;;5049542;28;20059;-72
2022/09/15 12:10:29;;;;;;;5.22;1.15;;;17.70;99.90;;;;;;5056836;28;20045;-70
2022/09/15 12:12:56;;;;;;;7.13;1.08;;;17.70;99.90;;;;;;5046538;28;20045;-70
2022/09/15 12:15:26;;;;;;;4.72;1.02;;;18.00;99.90;;;;;;5055357;28;20395;-71
2022/09/15 12:18:10;;;;;;;3.95;1.20;;;18.00;99.90;;;;;;5052657;28;20112;-71
2022/09/15 12:21:02;;;;;;;5.70;0.98;;;18.00;99.90;;;;;;5055994;28;20048;-71
2022/09/15 12:23:31;;;;;;;3.93;1.20;;;17.80;99.90;;;;;;5066832;28;20092;-72
2022/09/15 12:26:19;;;;;;;7.22;1.17;;;17.60;99.90;;;;;;5041406;28;20689;-70
2022/09/15 12:29:28;;;;;;;3.95;1.00;;;17.30;99.90;;;;;;5065956;28;20049;-71
2022/09/15 12:32:19;;;;;;;8.00;1.00;;;17.20;99.90;;;;;;5054298;28;20472;-69
2022/09/15 12:35:16;;;;;;;5.97;1.00;;;17.00;99.90;;;;;;5047709;28;20149;-68
2022/09/15 12:37:57;;;;;;;3.08;0.90;;;16.80;99.90;;;;;;5052386;28;20040;-69
2022/09/15 12:40:29;;;;;;;6.60;1.10;;;16.80;99.90;;;;;;5049633;28;20041;-69
2022/09/15 12:42:56;;;;;;;6.53;1.10;;;16.90;99.90;;;;;;5049803;28;20041;-70
2022/09/15 12:45:32;;;;;;;6.22;1.00;;;16.90;99.90;;;;;;5050460;28;20171;-68
2022/09/15 12:48:04;;;;;;;6.05;1.25;;;16.90;99.90;;;;;;5037596;28;20296;-69
2022/09/15 12:50:35;;;;;;;5.00;1.00;;;16.80;99.90;;;;;;5060925;28;20418;-68
2022/09/15 12:53:13;;;;;;;7.25;1.05;;;16.80;99.90;;;;;;5051276;28;20498;-70
2022/09/15 12:55:55;;;;;;;4.90;1.10;;;16.90;99.90;;;;;;5050499;28;20055;-69
2022/09/15 12:58:35;;;;;;;6.93;1.27;;;17.00;99.90;;;;;;5055018;28;20037;-69
2022/09/15 13:01:26;;;;;;;5.60;1.40;;;17.10;99.90;;;;;;5063665;28;20061;-71
2022/09/15 13:03:56;;;;;;;6.53;1.17;;;17.00;99.90;;;;;;5069234;28;20062;-68
2022/09/15 13:06:32;;;;;;;5.65;1.35;;;16.80;99.90;;;;;;5052285;28;20044;-70